Latest Weather Observations for Walpeup

IDV60801

Issued at 3:32 pm EDT Saturday 10 December 2016 (issued every 30 minutes, with the page automatically refreshed every 10 minutes)

About weather observations | Map of weather stations | Latest weather observations for VIC | Other Formats
Station Details ID: 076064 Name: WALPEUP RESEARCH Lat: -35.12 Lon: 142.00 Height: 105.0 m
Data from the previous 72 hours. | See also: Recent months at Walpeup
Date/Time
EDT
Temp
°C
App
Temp
°C
Dew
Point
°C
Rel
Hum
%
Delta-T
°C
Wind Press
QNH
hPa
Press
MSL
hPa
Rain since
9am
mm
Dir  Spd
km/h
Gust
km/h
Spd
kts
Gust
kts
10/03:30pm 26.4 21.9 4.2 24 11.2 SW 17 24 9 13 - - 0.0
10/03:00pm 26.5 23.2 4.3 24 11.2 WSW 11 24 6 13 - - 0.0
10/02:30pm 26.0 22.3 4.5 25 10.9 W 13 28 7 15 - - 0.0
10/02:00pm 25.0 21.3 4.7 27 10.2 SW 13 24 7 13 - - 0.0
10/01:30pm 23.7 20.7 4.1 28 9.7 W 9 17 5 9 - - 0.0
10/01:00pm 23.3 20.4 4.8 30 9.2 W 9 20 5 11 - - 0.0
10/12:30pm 21.3 18.4 4.4 33 8.3 SSW 9 22 5 12 - - 0.0
10/12:00pm 21.1 19.2 5.1 35 7.9 W 4 13 2 7 - - 0.0
10/11:30am 20.6 18.3 5.0 36 7.7 W 6 17 3 9 - - 0.0
10/11:00am 19.3 17.6 5.7 41 6.7 SW 4 11 2 6 - - 0.0
10/10:30am 18.6 16.4 5.5 42 6.4 ESE 6 9 3 5 - - 0.0
10/10:00am 17.5 15.3 5.1 44 6.0 ESE 6 11 3 6 - - 0.0
10/09:30am 16.6 14.2 5.3 47 5.4 ESE 7 13 4 7 - - 0.0
10/09:00am 15.3 12.5 5.0 50 4.9 ESE 9 15 5 8 - - 0.0
10/08:30am 14.3 10.9 5.7 56 4.1 SE 13 17 7 9 - - 0.0
10/08:00am 13.1 9.6 5.5 60 3.6 SE 13 17 7 9 - - 0.0
10/07:30am 11.4 8.3 5.5 67 2.7 SSE 11 17 6 9 - - 0.0
10/07:00am 10.1 7.4 5.5 73 2.1 SSE 9 15 5 8 - - 0.0
10/06:30am 8.3 5.8 4.9 79 1.5 SSE 7 11 4 6 - - 0.0
10/06:00am 8.7 5.8 4.9 77 1.7 SSE 9 15 5 8 - - 0.0
10/05:30am 8.5 6.0 4.7 77 1.7 SSE 7 9 4 5 - - 0.0
10/05:00am 8.8 5.9 4.6 75 1.9 SSE 9 11 5 6 - - 0.0
10/04:30am 8.9 6.0 4.7 75 1.9 S 9 13 5 7 - - 0.0
10/04:00am 9.2 6.3 4.6 73 2.1 S 9 11 5 6 - - 0.0
10/03:30am 10.0 7.1 4.8 70 2.3 S 9 11 5 6 - - 0.0
10/03:00am 10.4 7.5 4.8 68 2.5 S 9 11 5 6 - - 0.0
10/02:30am 10.9 7.6 4.8 66 2.8 SSE 11 13 6 7 - - 0.0
10/02:00am 11.6 8.3 4.8 63 3.1 SSE 11 13 6 7 - - 0.0
10/01:30am 12.1 8.8 4.8 61 3.4 SSE 11 15 6 8 - - 0.0
10/01:00am 12.8 9.2 4.8 58 3.7 SSE 13 20 7 11 - - 0.0
10/12:30am 13.5 9.5 4.9 56 4.0 SSE 15 22 8 12 - - 0.0
10/12:00am 14.1 10.1 4.7 53 4.4 S 15 20 8 11 - - 0.0
 
Date/Time
EDT
Temp
°C
App
Temp
°C
Dew
Point
°C
Rel
Hum
%
Delta-T
°C
Wind Press
QNH
hPa
Press
MSL
hPa
Rain since
9am
mm
Dir  Spd
km/h
Gust
km/h
Spd
kts
Gust
kts
09/11:30pm 14.8 10.7 4.5 50 4.8 SSE 15 22 8 12 - - 0.0
09/11:00pm 15.3 11.6 4.4 48 5.1 SSE 13 17 7 9 - - 0.0
09/10:30pm 16.2 12.0 3.9 44 5.7 S 15 19 8 10 - - 0.0
09/10:00pm 16.4 12.5 3.5 42 6.0 S 13 15 7 8 - - 0.0
09/09:30pm 17.3 13.3 2.9 38 6.6 S 13 17 7 9 - - 0.0
09/09:00pm 18.0 14.4 2.7 36 7.1 S 11 13 6 7 - - 0.0
09/08:30pm 19.6 15.5 2.5 32 8.0 S 13 19 7 10 - - 0.0
09/08:00pm 20.7 15.9 2.5 30 8.5 S 17 22 9 12 - - 0.0
09/07:30pm 21.3 15.9 2.6 29 8.8 SSW 20 28 11 15 - - 0.0
09/07:00pm 22.1 17.3 2.8 28 9.2 SSW 17 28 9 15 - - 0.0
09/06:30pm 22.4 17.0 2.5 27 9.5 SSW 20 33 11 18 - - 0.0
09/06:00pm 22.6 17.4 2.7 27 9.5 SSW 19 30 10 16 - - 0.0
09/05:30pm 22.2 17.6 1.8 26 9.6 S 15 32 8 17 - - 0.0
09/05:00pm 22.3 17.5 2.4 27 9.4 SSW 17 35 9 19 - - 0.0
09/04:30pm 23.2 19.2 2.7 26 9.8 SW 13 20 7 11 - - 0.0
09/04:00pm 21.9 16.4 2.1 27 9.3 SSW 20 32 11 17 - - 0.0
09/03:30pm 21.2 15.4 2.5 29 8.8 SSW 22 39 12 21 - - 0.0
09/03:00pm 21.4 16.2 2.6 29 8.9 SSW 19 28 10 15 - - 0.0
09/02:30pm 20.6 15.8 2.4 30 8.5 SSW 17 37 9 20 - - 0.0
09/02:00pm 20.1 14.0 2.5 31 8.2 SW 24 41 13 22 - - 0.0
09/01:30pm 19.9 13.5 3.2 33 7.9 S 26 41 14 22 - - 0.0
09/01:00pm 19.6 14.3 2.9 33 7.8 SW 20 32 11 17 - - 0.0
09/12:30pm 19.7 14.7 3.4 34 7.7 SW 19 35 10 19 - - 0.0
09/12:00pm 19.0 13.7 2.8 34 7.5 SW 20 33 11 18 - - 0.0
09/11:30am 18.6 12.8 2.4 34 7.5 SW 22 43 12 23 - - 0.0
09/11:00am 17.2 11.8 2.4 37 6.7 SW 20 32 11 17 - - 0.0
09/10:30am 15.8 11.1 2.9 42 5.9 SW 17 28 9 15 - - 0.0
09/10:00am 15.0 8.9 2.5 43 5.6 SW 24 33 13 18 - - 0.0
09/09:30am 15.0 9.1 4.1 48 5.1 SSW 24 35 13 19 - - 0.0
09/09:00am 14.2 8.7 4.2 51 4.6 SSW 22 33 12 18 - - 0.2
09/08:30am 12.7 8.0 6.1 64 3.1 SW 20 26 11 14 - - 0.2
09/08:00am 10.9 6.3 6.3 73 2.2 SW 20 28 11 15 - - 0.2
09/07:30am 8.8 4.9 5.4 79 1.5 WSW 15 20 8 11 - - 0.2
09/07:00am 8.3 5.2 5.4 82 1.3 WSW 11 15 6 8 - - 0.2
09/06:30am 7.2 4.0 5.0 86 1.0 WSW 11 17 6 9 - - 0.2
09/06:00am 7.0 3.7 4.8 86 1.0 WSW 11 17 6 9 - - 0.2
09/05:30am 7.2 4.3 4.9 85 1.0 W 9 13 5 7 - - 0.2
09/05:00am 7.7 4.8 4.8 82 1.3 W 9 13 5 7 - - 0.2
09/04:30am 8.3 4.7 5.1 80 1.4 WSW 13 17 7 9 - - 0.2
09/04:00am 8.6 5.4 5.0 78 1.6 WSW 11 15 6 8 - - 0.2
09/03:30am 8.9 5.3 5.1 77 1.7 WSW 13 17 7 9 - - 0.2
09/03:00am 9.6 6.0 5.2 74 2.0 WSW 13 19 7 10 - - 0.2
09/02:30am 10.2 5.5 5.2 71 2.3 WSW 19 24 10 13 - - 0.2
09/02:00am 10.6 5.9 5.2 69 2.5 WSW 19 24 10 13 - - 0.2
09/01:30am 11.2 6.5 5.3 67 2.7 WSW 19 30 10 16 - - 0.2
09/01:00am 11.1 7.4 6.5 73 2.2 WSW 15 20 8 11 - - 0.2
09/12:30am 11.5 8.2 6.4 71 2.4 W 13 19 7 10 - - 0.2
09/12:00am 12.7 7.9 5.8 63 3.3 WSW 20 26 11 14 - - 0.2
 
Date/Time
EDT
Temp
°C
App
Temp
°C
Dew
Point
°C
Rel
Hum
%
Delta-T
°C
Wind Press
QNH
hPa
Press
MSL
hPa
Rain since
9am
mm
Dir  Spd
km/h
Gust
km/h
Spd
kts
Gust
kts
08/11:30pm 13.2 8.7 5.9 61 3.5 WSW 19 30 10 16 - - 0.2
08/11:00pm 14.0 7.6 5.1 55 4.2 WSW 28 43 15 23 - - 0.2
08/10:30pm 14.2 8.1 4.8 53 4.4 WSW 26 37 14 20 - - 0.2
08/10:00pm 14.4 8.9 4.1 50 4.8 WSW 22 30 12 16 - - 0.2
08/09:30pm 14.9 8.4 4.6 50 4.8 WSW 28 37 15 20 - - 0.2
08/09:03pm 15.4 8.2 5.0 50 4.9 WSW 32 50 17 27 - - 0.2
08/09:00pm 15.5 7.7 4.8 49 5.1 WSW 35 50 19 27 - - 0.2
08/08:50pm 15.7 8.9 5.3 50 5.0 SW 30 50 16 27 - - 0.2
08/08:30pm 16.3 9.2 5.3 48 5.3 WSW 32 46 17 25 - - 0.2
08/08:00pm 17.7 9.9 5.0 43 6.1 SW 35 52 19 28 - - 0.2
08/07:32pm 18.7 10.2 3.3 36 7.2 WSW 37 57 20 31 - - 0.2
08/07:30pm 18.9 10.8 3.1 35 7.4 WSW 35 50 19 27 - - 0.2
08/07:06pm 19.3 10.8 3.1 34 7.6 WSW 37 56 20 30 - - 0.2
08/07:00pm 19.6 10.0 3.3 34 7.7 WSW 43 56 23 30 - - 0.2
08/06:30pm 20.4 10.8 3.6 33 8.0 WSW 43 61 23 33 - - 0.2
08/06:02pm 20.4 11.8 6.4 40 7.1 WSW 41 59 22 32 - - 0.2
08/06:00pm 19.4 10.2 5.5 40 6.9 WSW 43 59 23 32 - - 0.2
08/05:30pm 20.8 11.4 5.2 36 7.7 WSW 44 65 24 35 - - 0.2
08/05:00pm 22.2 12.6 4.3 31 8.8 WSW 44 65 24 35 - - 0.2
08/04:30pm 21.4 11.7 5.7 36 7.9 WSW 46 67 25 36 - - 0.2
08/04:21pm 21.6 12.3 5.1 34 8.2 WSW 43 67 23 36 - - 0.2
08/04:14pm 21.9 12.9 6.2 36 8.0 WSW 43 57 23 31 - - 0.2
08/04:01pm 22.9 13.0 2.9 27 9.6 W 44 65 24 35 - - 0.2
08/04:00pm 22.4 12.1 2.5 27 9.5 W 46 65 25 35 - - 0.2
08/03:30pm 22.1 13.0 4.2 31 8.8 WSW 41 63 22 34 - - 0.2
08/03:00pm 22.7 13.2 4.7 31 8.9 W 44 65 24 35 - - 0.2
08/02:31pm 22.8 14.1 6.1 34 8.5 WSW 41 61 22 33 - - 0.2
08/02:30pm 22.8 13.8 6.6 35 8.3 WSW 43 61 23 33 - - 0.2
08/02:02pm 23.1 14.4 4.1 29 9.4 W 39 57 21 31 - - 0.2
08/02:00pm 23.4 14.5 4.9 30 9.3 W 41 57 22 31 - - 0.2
08/01:30pm 22.1 12.2 4.7 32 8.6 WSW 46 72 25 39 - - 0.2
08/01:00pm 21.6 12.3 5.9 36 7.9 W 44 65 24 35 - - 0.2
08/12:30pm 20.9 12.0 6.8 40 7.2 W 43 63 23 34 - - 0.2
08/12:00pm 20.7 12.8 8.0 44 6.6 WSW 39 63 21 34 - - 0.2
08/11:30am 20.6 13.9 9.5 49 5.9 W 35 61 19 33 - - 0.2
08/11:06am 18.6 11.0 9.1 54 5.0 W 39 57 21 31 - - 0.2
08/11:00am 18.3 11.4 10.4 60 4.3 W 37 50 20 27 - - 0.2
08/10:37am 17.5 11.4 11.8 69 3.1 W 35 56 19 30 - - 0.0
08/10:30am 16.4 10.7 11.3 72 2.8 W 32 43 17 23 - - 0.0
08/10:00am 15.2 11.1 11.6 79 1.9 W 24 43 13 23 - - 0.0
08/09:30am 14.7 11.1 13.1 90 0.9 W 24 37 13 20 - - 0.0
08/09:00am 14.5 10.4 13.9 96 0.3 WSW 28 39 15 21 - - 2.0
08/08:30am 14.3 7.6 13.3 94 0.6 WSW 41 57 22 31 - - 1.8
08/08:00am 17.7 13.0 15.9 89 1.1 W 35 54 19 29 - - 1.6
08/07:58am 17.8 13.5 16.0 89 1.1 W 33 54 18 29 - - 1.6
08/07:52am 19.5 16.2 17.1 86 1.5 WNW 30 54 16 29 - - 1.6
08/07:30am 20.1 17.5 17.7 86 1.5 WNW 28 37 15 20 - - 1.6
08/07:00am 20.0 18.1 17.6 86 1.5 NW 24 33 13 18 - - 1.6
08/06:30am 19.6 18.3 17.2 86 1.5 NNW 20 28 11 15 - - 1.6
08/06:00am 19.6 18.8 17.0 85 1.6 NW 17 22 9 12 - - 1.2
08/05:30am 19.8 19.7 17.0 84 1.7 NW 13 17 7 9 - - 0.8
08/05:00am 21.2 17.8 15.7 71 3.3 NW 28 35 15 19 - - 0.4
08/04:39am 24.2 20.0 13.4 51 6.3 NW 28 48 15 26 - - 0.0
08/04:30am 24.2 19.8 12.8 49 6.6 NW 28 37 15 20 - - 0.0
08/04:00am 26.3 20.7 10.0 36 9.1 N 30 44 16 24 - - 0.0
08/03:30am 25.9 20.7 8.8 34 9.3 N 26 37 14 20 - - 0.0
08/03:00am 25.7 20.3 8.2 33 9.4 N 26 39 14 21 - - 0.0
08/02:30am 25.7 20.0 8.2 33 9.4 N 28 39 15 21 - - 0.0
08/02:00am 25.6 19.7 7.7 32 9.6 N 28 37 15 20 - - 0.0
08/01:30am 26.0 19.4 7.6 31 9.8 N 32 43 17 23 - - 0.0
08/01:00am 26.2 19.5 7.3 30 10.1 NNE 32 43 17 23 - - 0.0
08/12:30am 26.2 20.3 7.3 30 10.1 NNE 28 39 15 21 - - 0.0
08/12:00am 25.3 20.9 7.4 32 9.5 NNE 20 28 11 15 - - 0.0
 
Date/Time
EDT
Temp
°C
App
Temp
°C
Dew
Point
°C
Rel
Hum
%
Delta-T
°C
Wind Press
QNH
hPa
Press
MSL
hPa
Rain since
9am
mm
Dir  Spd
km/h
Gust
km/h
Spd
kts
Gust
kts
07/11:30pm 25.1 21.3 7.7 33 9.3 NNE 17 24 9 13 - - 0.0
07/11:00pm 25.6 21.8 7.7 32 9.6 NNE 17 24 9 13 - - 0.0
07/10:30pm 26.4 22.6 7.4 30 10.1 NNE 17 22 9 12 - - 0.0
07/10:00pm 26.8 23.4 7.8 30 10.2 NNE 15 20 8 11 - - 0.0
07/09:30pm 27.6 23.8 7.5 28 10.8 NNE 17 24 9 13 - - 0.0
07/09:00pm 28.6 24.3 7.2 26 11.5 NNE 19 33 10 18 - - 0.0
07/08:30pm 29.0 24.6 7.6 26 11.6 N 20 28 11 15 - - 0.0
07/08:00pm 29.2 24.8 7.2 25 11.9 N 20 26 11 14 - - 0.0
07/07:30pm 30.3 25.9 7.5 24 12.4 N 20 30 11 16 - - 0.0
07/07:00pm 30.4 25.1 7.0 23 12.7 N 24 30 13 16 - - 0.0
07/06:30pm 30.2 25.9 6.8 23 12.6 NNW 19 28 10 15 - - 0.0
07/06:00pm 31.6 28.1 7.3 22 13.3 N 15 22 8 12 - - 0.0
07/05:30pm 30.7 27.2 7.2 23 12.8 NNW 15 32 8 17 - - 0.0
07/05:00pm 30.9 27.4 7.4 23 12.8 N 15 33 8 18 - - 0.0
07/04:30pm 31.0 26.5 6.8 22 13.1 NW 20 30 11 16 - - 0.0
07/04:00pm 31.0 26.1 6.8 22 13.1 NNW 22 37 12 20 - - 0.0

Other Formats:

Comma delimited format used in spreadsheet applications
http://www.bom.gov.au/fwo/IDV60801/IDV60801.95831.axf

JavaScript Object Notation format (JSON) in row-major order
http://www.bom.gov.au/fwo/IDV60801/IDV60801.95831.json